createdAt,value
2023-04-16T00:03:41.766Z,5.00
2023-04-16T00:06:11.596Z,6.80
2023-04-16T00:08:39.850Z,6.80
2023-04-16T00:11:08.174Z,5.10
2023-04-16T00:13:36.285Z,4.60
2023-04-16T00:16:04.583Z,9.10
2023-04-16T00:18:32.803Z,8.70
2023-04-16T00:21:00.937Z,4.10
2023-04-16T00:23:29.119Z,3.30
2023-04-16T00:25:57.314Z,4.10
2023-04-16T00:28:26.825Z,7.80
2023-04-16T00:30:56.196Z,13.00
2023-04-16T00:33:24.403Z,11.10
2023-04-16T00:35:52.782Z,17.40
2023-04-16T00:38:20.987Z,8.10
2023-04-16T00:40:49.293Z,4.70
2023-04-16T00:43:25.111Z,6.80
2023-04-16T00:45:56.216Z,12.40
2023-04-16T00:48:25.120Z,11.70
2023-04-16T00:50:53.748Z,8.50
2023-04-16T00:53:22.894Z,6.20
2023-04-16T00:55:52.069Z,12.40
2023-04-16T00:58:20.525Z,7.50
2023-04-16T01:00:48.884Z,7.80
2023-04-16T01:03:18.068Z,7.10
2023-04-16T01:05:46.710Z,9.50
2023-04-16T01:08:19.489Z,8.80
2023-04-16T01:10:48.492Z,11.00
2023-04-16T01:13:17.924Z,13.10
2023-04-16T01:15:46.055Z,10.90
2023-04-16T01:18:19.613Z,9.60
2023-04-16T01:20:49.162Z,10.30
2023-04-16T01:23:17.905Z,10.90
2023-04-16T01:25:47.254Z,10.00
2023-04-16T01:28:15.406Z,9.80
2023-04-16T01:30:43.993Z,12.40
2023-04-16T01:33:14.753Z,12.80
2023-04-16T01:35:43.131Z,13.80
2023-04-16T01:38:11.698Z,8.00
2023-04-16T01:40:40.078Z,8.00
2023-04-16T01:43:08.159Z,13.40
2023-04-16T01:45:36.644Z,10.50
2023-04-16T01:48:05.242Z,6.60
2023-04-16T01:50:33.896Z,7.90
2023-04-16T01:53:02.115Z,14.00
2023-04-16T01:55:33.629Z,8.80
2023-04-16T01:58:02.168Z,13.50
2023-04-16T02:00:30.406Z,9.80
2023-04-16T02:02:58.775Z,13.10
2023-04-16T02:05:27.490Z,11.80
2023-04-16T02:07:55.608Z,12.90
2023-04-16T02:10:23.891Z,11.70
2023-04-16T02:12:52.198Z,12.20
2023-04-16T02:15:20.491Z,10.90
2023-04-16T02:17:48.976Z,10.80
2023-04-16T02:20:17.151Z,12.40
2023-04-16T02:22:45.496Z,8.40
2023-04-16T02:25:13.799Z,11.10
2023-04-16T02:27:41.974Z,13.30
2023-04-16T02:30:11.496Z,11.50
2023-04-16T02:32:39.812Z,15.20
2023-04-16T02:35:08.730Z,11.30
2023-04-16T02:37:36.886Z,15.60
2023-04-16T02:40:05.545Z,14.80
2023-04-16T02:42:33.672Z,13.80
2023-04-16T02:45:01.851Z,16.00
2023-04-16T02:47:30.159Z,12.50
2023-04-16T02:49:58.346Z,12.20
2023-04-16T02:52:26.480Z,11.30
2023-04-16T02:54:55.455Z,10.90
2023-04-16T02:57:23.631Z,11.70
2023-04-16T02:59:51.968Z,8.90
2023-04-16T03:02:20.151Z,12.20
2023-04-16T03:04:48.318Z,15.90
2023-04-16T03:07:16.551Z,9.40
2023-04-16T03:09:45.281Z,6.40
2023-04-16T03:12:13.516Z,17.10
2023-04-16T03:14:41.627Z,7.80
2023-04-16T03:17:09.789Z,11.30
2023-04-16T03:19:38.012Z,12.40
2023-04-16T03:22:06.278Z,11.70
2023-04-16T03:24:34.698Z,9.20
2023-04-16T03:27:03.683Z,8.10
2023-04-16T03:29:31.889Z,16.30
2023-04-16T03:32:02.279Z,8.90
2023-04-16T03:34:30.460Z,8.80
2023-04-16T03:36:58.796Z,13.80
2023-04-16T03:39:27.197Z,8.90
2023-04-16T03:41:55.661Z,9.00
2023-04-16T03:44:25.606Z,9.40
2023-04-16T03:46:54.514Z,12.20
2023-04-16T03:49:23.714Z,8.50
2023-04-16T03:51:53.176Z,9.00
2023-04-16T03:54:22.796Z,9.20
2023-04-16T03:56:51.426Z,7.80
2023-04-16T03:59:19.740Z,8.00
2023-04-16T04:01:48.144Z,9.20
2023-04-16T04:04:17.900Z,12.50
2023-04-16T04:06:47.308Z,6.20
2023-04-16T04:09:15.387Z,10.80
2023-04-16T04:11:43.651Z,6.90
2023-04-16T04:14:12.238Z,11.40
2023-04-16T04:16:41.158Z,10.70
2023-04-16T04:19:09.728Z,10.00
2023-04-16T04:21:38.836Z,7.80
2023-04-16T04:24:07.079Z,11.50
2023-04-16T04:26:35.458Z,8.70
2023-04-16T04:29:03.886Z,11.10
2023-04-16T04:31:32.502Z,5.50
2023-04-16T04:34:00.913Z,13.90
2023-04-16T04:36:29.187Z,5.90
2023-04-16T04:38:57.502Z,6.20
2023-04-16T04:41:25.705Z,5.30
2023-04-16T04:43:53.930Z,12.40
2023-04-16T04:46:22.569Z,10.80
2023-04-16T04:48:50.725Z,13.10
2023-04-16T04:51:19.199Z,6.80
2023-04-16T04:53:47.387Z,8.70
2023-04-16T04:56:16.141Z,8.60
2023-04-16T04:58:44.288Z,4.60
2023-04-16T05:01:12.573Z,6.30
2023-04-16T05:03:41.262Z,8.10
2023-04-16T05:06:10.470Z,5.80
2023-04-16T05:08:38.736Z,5.60
2023-04-16T05:11:06.875Z,8.50
2023-04-16T05:13:35.994Z,5.50
2023-04-16T05:16:04.439Z,7.00
2023-04-16T05:18:32.600Z,9.50
2023-04-16T05:21:01.476Z,9.70
2023-04-16T05:23:30.207Z,8.70
2023-04-16T05:25:58.338Z,9.60
2023-04-16T05:28:27.204Z,13.90
2023-04-16T05:30:55.593Z,11.30
2023-04-16T05:33:23.908Z,8.10
2023-04-16T05:35:52.974Z,9.70
2023-04-16T05:38:21.115Z,7.80
2023-04-16T05:40:49.505Z,8.30
2023-04-16T05:43:18.724Z,8.40
2023-04-16T05:45:47.289Z,7.70
2023-04-16T05:48:15.550Z,6.40
2023-04-16T05:50:43.991Z,10.30
2023-04-16T05:53:12.211Z,9.90
2023-04-16T05:55:40.441Z,6.30
2023-04-16T05:58:09.006Z,6.40
2023-04-16T06:00:37.155Z,9.10
2023-04-16T06:03:06.952Z,11.80
2023-04-16T06:05:35.918Z,5.40
2023-04-16T06:08:04.030Z,8.20
2023-04-16T06:10:32.166Z,7.70
2023-04-16T06:13:00.887Z,5.30
2023-04-16T06:15:29.383Z,4.90
2023-04-16T06:18:00.711Z,7.60
2023-04-16T06:20:29.297Z,4.10
2023-04-16T06:22:57.472Z,6.80
2023-04-16T06:25:25.604Z,6.10
2023-04-16T06:27:54.130Z,4.20
2023-04-16T06:30:26.651Z,5.10
2023-04-16T06:32:54.969Z,6.00
2023-04-16T06:35:23.121Z,6.80
2023-04-16T06:37:51.256Z,3.90
2023-04-16T06:40:19.445Z,3.90
2023-04-16T06:42:47.704Z,5.10
2023-04-16T06:45:16.774Z,3.30
2023-04-16T06:47:44.951Z,3.80
2023-04-16T06:50:13.055Z,5.90
2023-04-16T06:52:41.147Z,4.80
2023-04-16T06:55:10.672Z,4.10
2023-04-16T06:57:38.824Z,6.60
2023-04-16T07:00:07.780Z,4.30
2023-04-16T07:02:36.804Z,5.50
2023-04-16T07:05:05.731Z,8.60
2023-04-16T07:07:34.472Z,6.20
2023-04-16T07:10:03.319Z,5.50
2023-04-16T07:12:32.899Z,7.20
2023-04-16T07:15:01.038Z,6.00
2023-04-16T07:17:29.385Z,6.30
2023-04-16T07:19:58.537Z,5.50
2023-04-16T07:22:26.675Z,3.40
2023-04-16T07:24:55.314Z,6.70
2023-04-16T07:27:25.794Z,7.10
2023-04-16T07:29:53.913Z,5.00
2023-04-16T07:32:22.790Z,7.50
2023-04-16T07:34:50.988Z,5.50
2023-04-16T07:37:19.196Z,2.90
2023-04-16T07:39:48.106Z,7.60
2023-04-16T07:42:16.349Z,5.90
2023-04-16T07:44:44.562Z,4.00
2023-04-16T07:47:12.947Z,7.00
2023-04-16T07:49:41.462Z,8.40
2023-04-16T07:52:09.984Z,4.70
2023-04-16T07:54:39.239Z,5.10
2023-04-16T07:57:07.866Z,7.90
2023-04-16T07:59:36.097Z,9.50
2023-04-16T08:02:04.779Z,3.40
2023-04-16T08:04:33.526Z,8.10
2023-04-16T08:07:02.032Z,5.40
2023-04-16T08:09:30.737Z,5.00
2023-04-16T08:12:01.185Z,4.10
2023-04-16T08:14:29.464Z,6.40
2023-04-16T08:16:58.185Z,5.50
2023-04-16T08:19:26.274Z,3.80
2023-04-16T08:21:55.143Z,3.90
2023-04-16T08:24:23.964Z,8.60
2023-04-16T08:26:52.471Z,4.10
2023-04-16T08:29:20.771Z,2.90
2023-04-16T08:31:49.225Z,3.90
2023-04-16T08:34:17.647Z,3.60
2023-04-16T08:36:45.912Z,4.10
2023-04-16T08:39:14.129Z,3.70
2023-04-16T08:41:44.439Z,8.80
2023-04-16T08:44:27.539Z,6.50
2023-04-16T08:46:56.239Z,7.50
2023-04-16T08:49:28.560Z,3.80
2023-04-16T08:51:57.273Z,5.00
2023-04-16T08:54:38.517Z,7.00
2023-04-16T08:57:10.335Z,6.30
2023-04-16T08:59:40.453Z,5.70
2023-04-16T09:02:13.440Z,5.80
2023-04-16T09:04:43.074Z,5.80
2023-04-16T09:07:12.491Z,6.50
2023-04-16T09:09:43.167Z,7.20
2023-04-16T09:12:11.940Z,7.30
2023-04-16T09:14:40.194Z,8.00
2023-04-16T09:17:10.358Z,9.30
2023-04-16T09:19:38.545Z,8.40
2023-04-16T09:22:06.845Z,8.00
2023-04-16T09:24:35.441Z,3.50
2023-04-16T09:27:04.938Z,8.60
2023-04-16T09:29:40.630Z,8.10
2023-04-16T09:32:10.924Z,4.90
2023-04-16T09:35:09.251Z,17.10
2023-04-16T09:37:38.825Z,6.00
2023-04-16T09:40:08.139Z,9.80
2023-04-16T09:42:37.578Z,10.30
2023-04-16T09:45:06.788Z,15.20
2023-04-16T09:47:45.427Z,11.50
2023-04-16T09:50:19.075Z,6.10
2023-04-16T09:52:50.918Z,8.80
2023-04-16T09:55:24.009Z,11.80
2023-04-16T09:58:00.241Z,9.00
2023-04-16T10:00:30.530Z,6.70
2023-04-16T10:03:07.198Z,6.20
2023-04-16T10:05:35.855Z,10.10
2023-04-16T10:08:12.388Z,9.30
2023-04-16T10:13:10.389Z,9.50
2023-04-16T10:15:40.081Z,9.90
2023-04-16T10:18:08.507Z,8.60
2023-04-16T10:20:37.728Z,9.30
2023-04-16T10:23:07.053Z,4.90
2023-04-16T10:25:35.483Z,9.40
2023-04-16T10:28:04.113Z,11.10
2023-04-16T10:30:32.909Z,10.20
2023-04-16T10:33:04.363Z,8.90
2023-04-16T10:35:32.644Z,8.20
2023-04-16T10:38:27.732Z,10.60
2023-04-16T10:41:00.842Z,11.80
2023-04-16T10:43:31.023Z,8.30
2023-04-16T10:46:19.302Z,14.80
2023-04-16T10:48:50.133Z,9.60
2023-04-16T10:51:31.672Z,6.30
2023-04-16T10:54:05.143Z,10.50
2023-04-16T10:56:34.756Z,9.10
2023-04-16T10:59:07.387Z,10.70
2023-04-16T11:01:45.668Z,7.50
2023-04-16T11:04:25.879Z,10.40
2023-04-16T11:07:17.696Z,10.50
2023-04-16T11:10:05.429Z,11.50
2023-04-16T11:15:15.496Z,9.90
2023-04-16T11:20:21.895Z,5.20
2023-04-16T11:22:53.107Z,7.70
2023-04-16T11:25:33.375Z,11.30
2023-04-16T11:28:02.753Z,8.60
2023-04-16T11:30:40.697Z,7.50
2023-04-16T11:33:11.781Z,8.20
2023-04-16T11:35:41.223Z,13.40
2023-04-16T11:38:09.503Z,8.90
2023-04-16T11:40:37.678Z,7.60
2023-04-16T11:43:16.685Z,9.30
2023-04-16T11:46:02.688Z,8.50
2023-04-16T11:48:53.850Z,11.50
2023-04-16T11:51:22.599Z,7.70
2023-04-16T11:53:54.641Z,12.60
2023-04-16T11:56:30.597Z,12.10
2023-04-16T11:59:19.850Z,9.70
2023-04-16T12:01:51.145Z,14.40
2023-04-16T12:04:22.815Z,9.80
2023-04-16T12:07:11.335Z,11.10
2023-04-16T12:09:42.613Z,9.60
2023-04-16T12:12:28.496Z,7.30
2023-04-16T12:14:57.681Z,6.90
2023-04-16T12:17:26.512Z,10.20
2023-04-16T12:20:00.035Z,8.40
2023-04-16T12:22:34.716Z,9.50
2023-04-16T12:25:06.977Z,8.70
2023-04-16T12:27:41.697Z,7.00
2023-04-16T12:30:10.905Z,9.50
2023-04-16T12:32:41.888Z,8.30
2023-04-16T12:35:14.054Z,8.00
2023-04-16T12:37:42.719Z,11.10
2023-04-16T12:40:11.168Z,14.20
2023-04-16T12:42:39.739Z,9.40
2023-04-16T12:45:09.144Z,15.90
2023-04-16T12:47:37.877Z,10.60
2023-04-16T12:50:07.318Z,11.50
2023-04-16T12:52:35.896Z,13.50
2023-04-16T12:55:04.470Z,15.40
2023-04-16T12:57:32.688Z,14.70
2023-04-16T13:00:00.920Z,7.40
2023-04-16T13:02:29.855Z,9.20
2023-04-16T13:04:58.809Z,8.70
2023-04-16T13:07:27.016Z,10.50
2023-04-16T13:09:55.286Z,12.50
2023-04-16T13:12:23.980Z,15.60
2023-04-16T13:14:52.412Z,10.70
2023-04-16T13:17:20.721Z,10.80
2023-04-16T13:19:49.430Z,13.60
2023-04-16T13:22:17.897Z,8.20
2023-04-16T13:24:46.327Z,12.90
2023-04-16T13:27:14.850Z,9.80
2023-04-16T13:29:43.436Z,11.60
2023-04-16T13:32:11.707Z,7.40
2023-04-16T13:34:40.120Z,15.20
2023-04-16T13:37:08.389Z,12.90
2023-04-16T13:39:36.669Z,16.70
2023-04-16T13:42:05.049Z,12.10
2023-04-16T13:44:33.293Z,11.80
2023-04-16T13:47:01.576Z,9.40
2023-04-16T13:49:32.641Z,11.30
2023-04-16T13:52:02.672Z,10.50
2023-04-16T13:54:33.585Z,11.70
2023-04-16T13:57:01.779Z,11.10
2023-04-16T13:59:29.906Z,12.80
2023-04-16T14:02:00.795Z,8.20
2023-04-16T14:04:29.120Z,12.70
2023-04-16T14:06:57.758Z,5.00
2023-04-16T14:09:26.470Z,10.00
2023-04-16T14:11:55.477Z,13.40
2023-04-16T14:14:24.982Z,11.10
2023-04-16T14:16:55.599Z,13.10
2023-04-16T14:19:24.098Z,10.30
2023-04-16T14:21:52.218Z,10.70
2023-04-16T14:24:20.665Z,9.20
2023-04-16T14:26:48.836Z,14.00
2023-04-16T14:29:17.013Z,12.80
2023-04-16T14:31:45.374Z,8.40
2023-04-16T14:34:13.638Z,17.40
2023-04-16T14:36:41.785Z,14.90
2023-04-16T14:39:10.110Z,11.60
2023-04-16T14:41:38.574Z,12.50
2023-04-16T14:44:06.628Z,10.80
2023-04-16T14:46:35.158Z,8.80
2023-04-16T14:49:03.541Z,10.20
2023-04-16T14:51:31.695Z,5.80
2023-04-16T14:54:00.386Z,16.10
2023-04-16T14:56:28.542Z,12.70
2023-04-16T14:58:56.841Z,18.90
2023-04-16T15:01:25.262Z,17.50
2023-04-16T15:03:56.014Z,13.80
2023-04-16T15:06:24.452Z,18.40
2023-04-16T15:08:53.851Z,10.20
2023-04-16T15:11:22.179Z,10.80
2023-04-16T15:13:51.470Z,10.70
2023-04-16T15:16:20.895Z,14.40
2023-04-16T15:18:50.241Z,13.00
2023-04-16T15:21:21.275Z,15.30
2023-04-16T15:23:50.728Z,12.40
2023-04-16T15:26:20.388Z,11.20
2023-04-16T15:28:48.727Z,18.20
2023-04-16T15:31:16.968Z,12.90
2023-04-16T15:33:45.281Z,9.80
2023-04-16T15:36:13.522Z,9.20
2023-04-16T15:38:42.205Z,11.50
2023-04-16T15:41:10.477Z,11.20
2023-04-16T15:43:38.820Z,12.60
2023-04-16T15:46:07.195Z,12.10
2023-04-16T15:48:35.507Z,11.80
2023-04-16T15:51:06.076Z,16.80
2023-04-16T15:53:35.061Z,14.20
2023-04-16T15:56:03.201Z,16.80
2023-04-16T15:58:31.582Z,11.30
2023-04-16T16:00:59.867Z,10.50
2023-04-16T16:03:28.652Z,16.10
2023-04-16T16:05:59.406Z,11.30
2023-04-16T16:08:27.928Z,10.10
2023-04-16T16:10:55.977Z,12.90
2023-04-16T16:13:24.313Z,14.00
2023-04-16T16:15:52.670Z,19.60
2023-04-16T16:18:21.019Z,8.70
2023-04-16T16:20:49.301Z,13.80
2023-04-16T16:23:17.531Z,13.90
2023-04-16T16:25:45.621Z,13.10
2023-04-16T16:28:13.881Z,12.20
2023-04-16T16:30:43.723Z,12.20
2023-04-16T16:33:12.060Z,15.70
2023-04-16T16:35:40.305Z,12.80
2023-04-16T16:38:09.972Z,14.90
2023-04-16T16:40:39.164Z,18.40
2023-04-16T16:43:08.035Z,12.90
2023-04-16T16:45:36.637Z,18.10
2023-04-16T16:48:05.188Z,12.60
2023-04-16T16:50:33.601Z,9.60
2023-04-16T16:53:03.409Z,14.30
2023-04-16T16:55:32.442Z,13.80
2023-04-16T16:58:01.394Z,14.00
2023-04-16T17:00:29.605Z,13.00
2023-04-16T17:02:58.942Z,17.70
2023-04-16T17:05:27.275Z,14.50
2023-04-16T17:07:56.134Z,14.70
2023-04-16T17:10:24.885Z,13.60
2023-04-16T17:12:53.712Z,13.10
2023-04-16T17:15:22.134Z,14.50
2023-04-16T17:17:50.709Z,16.90
2023-04-16T17:20:20.803Z,20.20
2023-04-16T17:22:49.510Z,19.70
2023-04-16T17:25:17.678Z,16.10
2023-04-16T17:27:46.385Z,10.10
2023-04-16T17:30:18.321Z,18.60
2023-04-16T17:32:47.992Z,15.90
2023-04-16T17:35:16.238Z,14.90
2023-04-16T17:37:44.922Z,14.80
2023-04-16T17:40:15.818Z,13.00
2023-04-16T17:42:44.797Z,17.80
2023-04-16T17:45:13.168Z,14.50
2023-04-16T17:47:44.095Z,13.30
2023-04-16T17:50:14.331Z,15.20
2023-04-16T17:52:42.532Z,12.30
2023-04-16T17:55:12.065Z,8.80
2023-04-16T17:57:40.314Z,8.50
2023-04-16T18:00:12.569Z,13.20
2023-04-16T18:02:41.167Z,12.40
2023-04-16T18:05:09.941Z,12.70
2023-04-16T18:07:39.329Z,14.00
2023-04-16T18:10:08.676Z,15.00
2023-04-16T18:12:36.974Z,14.10
2023-04-16T18:15:06.976Z,9.10
2023-04-16T18:17:35.360Z,14.30
2023-04-16T18:20:03.900Z,10.50
2023-04-16T18:22:32.726Z,14.60
2023-04-16T18:25:01.025Z,8.00
2023-04-16T18:27:29.976Z,10.70
2023-04-16T18:29:58.708Z,8.80
2023-04-16T18:32:30.879Z,12.20
2023-04-16T18:34:59.868Z,10.90
2023-04-16T18:37:28.441Z,15.90
2023-04-16T18:39:58.020Z,13.30
2023-04-16T18:42:28.261Z,12.90
2023-04-16T18:44:59.454Z,15.80
2023-04-16T18:47:28.870Z,15.50
2023-04-16T18:49:57.218Z,11.90
2023-04-16T18:52:27.104Z,12.70
2023-04-16T18:54:55.354Z,19.20
2023-04-16T18:57:23.579Z,15.80
2023-04-16T18:59:51.862Z,12.50
2023-04-16T19:02:20.263Z,13.20
2023-04-16T19:04:49.114Z,15.50
2023-04-16T19:07:17.333Z,14.10
2023-04-16T19:09:45.837Z,11.50
2023-04-16T19:12:14.007Z,10.60
2023-04-16T19:14:42.200Z,13.70
2023-04-16T19:17:10.553Z,15.90
2023-04-16T19:19:38.834Z,14.70
2023-04-16T19:22:07.329Z,12.90
2023-04-16T19:24:35.727Z,14.40
2023-04-16T19:27:04.098Z,8.40
2023-04-16T19:29:35.615Z,13.90
2023-04-16T19:32:03.984Z,15.00
2023-04-16T19:34:33.466Z,8.50
2023-04-16T19:37:01.685Z,12.60
2023-04-16T19:39:29.918Z,16.90
2023-04-16T19:41:58.462Z,13.00
2023-04-16T19:44:26.648Z,14.80
2023-04-16T19:46:55.231Z,12.90
2023-04-16T19:49:23.797Z,14.60
2023-04-16T19:51:52.646Z,11.20
2023-04-16T19:54:21.079Z,14.40
2023-04-16T19:56:50.030Z,15.40
2023-04-16T19:59:18.193Z,10.70
2023-04-16T20:01:47.064Z,11.70
2023-04-16T20:04:15.454Z,16.90
2023-04-16T20:06:43.793Z,16.00
2023-04-16T20:09:13.499Z,13.30
2023-04-16T20:11:41.975Z,17.30
2023-04-16T20:14:10.526Z,18.10
2023-04-16T20:16:41.501Z,9.50
2023-04-16T20:19:09.666Z,12.80
2023-04-16T20:21:38.167Z,12.80
2023-04-16T20:24:06.893Z,19.00
2023-04-16T20:26:35.594Z,12.60
2023-04-16T20:29:03.832Z,12.40
2023-04-16T20:31:32.110Z,14.60
2023-04-16T20:34:00.297Z,13.90
2023-04-16T20:36:28.836Z,11.80
2023-04-16T20:38:56.996Z,13.90
2023-04-16T20:41:25.320Z,11.20
2023-04-16T20:43:53.855Z,10.00
2023-04-16T20:46:22.663Z,11.80
2023-04-16T20:48:52.555Z,9.70
2023-04-16T20:51:21.140Z,12.20
2023-04-16T20:53:49.430Z,12.80
2023-04-16T20:56:17.808Z,13.40
2023-04-16T20:58:46.099Z,12.50
2023-04-16T21:01:14.327Z,12.50
2023-04-16T21:03:42.883Z,13.00
2023-04-16T21:06:11.488Z,12.10
2023-04-16T21:08:39.634Z,17.10
2023-04-16T21:11:07.972Z,14.50
2023-04-16T21:13:36.257Z,10.60
2023-04-16T21:16:04.528Z,11.40
2023-04-16T21:18:32.729Z,15.40
2023-04-16T21:21:01.251Z,15.40
2023-04-16T21:23:29.567Z,10.90
2023-04-16T21:25:57.987Z,14.80
2023-04-16T21:28:26.171Z,14.00
2023-04-16T21:30:54.354Z,10.00
2023-04-16T21:33:22.559Z,12.70
2023-04-16T21:35:52.390Z,17.20
2023-04-16T21:38:21.893Z,10.20
2023-04-16T21:40:50.820Z,17.90
2023-04-16T21:43:22.152Z,13.90
2023-04-16T21:45:55.723Z,12.90
2023-04-16T21:48:24.636Z,14.00
2023-04-16T21:50:57.478Z,12.20
2023-04-16T21:53:26.587Z,17.00
2023-04-16T21:55:54.831Z,13.70
2023-04-16T21:58:23.429Z,16.30
2023-04-16T22:00:52.425Z,14.60
2023-04-16T22:03:23.254Z,14.40
2023-04-16T22:05:58.027Z,12.60
2023-04-16T22:08:26.209Z,13.50
2023-04-16T22:11:02.966Z,16.80
2023-04-16T22:13:31.854Z,16.30
2023-04-16T22:16:00.310Z,19.80
2023-04-16T22:18:29.377Z,15.40
2023-04-16T22:20:57.837Z,18.60
2023-04-16T22:23:26.260Z,13.40
2023-04-16T22:25:56.038Z,22.60
2023-04-16T22:28:24.459Z,19.80
2023-04-16T22:30:52.630Z,16.20
2023-04-16T22:33:21.043Z,14.40
2023-04-16T22:35:49.528Z,15.20
2023-04-16T22:38:17.795Z,17.30
2023-04-16T22:40:48.192Z,12.40
2023-04-16T22:43:16.381Z,14.40
2023-04-16T22:45:45.516Z,13.40
2023-04-16T22:48:14.053Z,15.90
2023-04-16T22:50:46.016Z,13.90
2023-04-16T22:53:14.315Z,22.90
2023-04-16T22:55:42.550Z,15.50
2023-04-16T22:58:10.810Z,14.50
2023-04-16T23:00:39.342Z,17.80
2023-04-16T23:03:08.136Z,14.70
2023-04-16T23:05:37.436Z,12.80
2023-04-16T23:08:05.789Z,16.80
2023-04-16T23:10:33.915Z,15.10
2023-04-16T23:13:02.802Z,14.30
2023-04-16T23:15:32.426Z,17.30
2023-04-16T23:18:00.845Z,22.10
2023-04-16T23:20:29.758Z,17.20
2023-04-16T23:22:58.197Z,13.70
2023-04-16T23:25:26.309Z,18.90
2023-04-16T23:27:54.512Z,15.70
2023-04-16T23:30:23.465Z,17.00
2023-04-16T23:32:51.754Z,14.60
2023-04-16T23:35:20.228Z,14.70
2023-04-16T23:38:08.707Z,14.90
2023-04-16T23:40:36.849Z,13.80
2023-04-16T23:43:04.953Z,14.40
2023-04-16T23:45:33.959Z,15.10
2023-04-16T23:48:02.945Z,16.90
2023-04-16T23:50:31.399Z,17.40
2023-04-16T23:53:00.210Z,18.20
2023-04-16T23:55:28.882Z,14.20
2023-04-16T23:57:57.055Z,16.30
